Trindade, Brazil
Current Conditions -  °F | °C
As of 8:00 AM on Friday 28 Nov 2014 (Local Time) from SBJU Reporting Station
Few Clouds Few Clouds  
Wind Chill: 82°   Ceiling: Unl
Heat Index: 86°   Visibility: 6mi
Dew Point: 70°   Wind: 8mph
Humidity: 66%   Direction: 120°ESE
Pressure: 30.03"   Gusts: NA
Location:  7.76°S, 40.27°W
Report Text: SBJU 281100Z 12007KT 9999 FEW020 28/21 Q1017
Loading
Personal Weather Stations






























Interactive Weather Map New forecast layout! Learn more

10-Day Weather Forecast

Advertisements
Track Severe Weather on mobile